Time;durP1;ratioP1;P1;durP2;ratioP2;P2;SDS_P1;SDS_P2;PMS_P1;PMS_P2;Temp;Humidity;BMP_temperature;BMP_pressure;BME280_temperature;BME280_humidity;BME280_pressure;Samples;Min_cycle;Max_cycle;Signal;HPM_P1;HPM_P2
2021/11/05 00:02:22;;;;;;;;;;;7.70;99.90;;;;;;5038821;28;19923;-70
2021/11/05 00:04:47;;;;;;;;;;;7.70;99.90;;;;;;5052655;28;20002;-70
2021/11/05 00:07:13;;;;;;;;;;;7.70;99.90;;;;;;5056853;28;20387;-70
2021/11/05 00:09:40;;;;;;;;;;;7.70;99.90;;;;;;5055621;28;20054;-70
2021/11/05 00:12:06;;;;;;;;;;;7.60;99.90;;;;;;5057049;28;19909;-70
2021/11/05 00:14:32;;;;;;;;;;;7.70;99.90;;;;;;5055814;28;20379;-70
2021/11/05 00:16:57;;;;;;;;;;;7.60;99.90;;;;;;5038846;28;19912;-69
2021/11/05 00:19:22;;;;;;;;;;;7.70;99.90;;;;;;5053117;28;19943;-70
2021/11/05 00:21:48;;;;;;;;;;;7.60;99.90;;;;;;5057169;28;19974;-70
2021/11/05 00:24:13;;;;;;;;;;;7.70;99.90;;;;;;5055980;28;19916;-70
2021/11/05 00:26:39;;;;;;;;;;;7.60;99.90;;;;;;5056318;28;19970;-70
2021/11/05 00:29:04;;;;;;;;;;;7.60;99.90;;;;;;5054769;28;19921;-70
2021/11/05 00:31:29;;;;;;;;;;;7.70;99.90;;;;;;5056588;28;19974;-70
2021/11/05 00:33:55;;;;;;;;;;;7.60;99.90;;;;;;5054708;28;19957;-69
2021/11/05 00:36:20;;;;;;;;;;;7.70;99.90;;;;;;5054599;28;19943;-69
2021/11/05 00:38:46;;;;;;;;;;;7.60;99.90;;;;;;5056971;28;19912;-70
2021/11/05 00:41:13;;;;;;;;;;;7.60;99.90;;;;;;5059241;28;19920;-69
2021/11/05 00:43:39;;;;;;;;;;;7.70;99.90;;;;;;5026580;28;19946;-69
2021/11/05 00:46:04;;;;;;;;;;;7.70;99.90;;;;;;5042666;28;20313;-70
2021/11/05 00:48:30;;;;;;;;;;;7.70;99.90;;;;;;5059094;28;19921;-69
2021/11/05 00:50:55;;;;;;;;;;;7.70;99.90;;;;;;5060370;28;20401;-70
2021/11/05 00:53:21;;;;;;;;;;;7.70;99.90;;;;;;5056830;28;19912;-69
2021/11/05 00:55:46;;;;;;;;;;;7.70;99.90;;;;;;5059041;28;20333;-70
2021/11/05 00:58:12;;;;;;;;;;;7.70;99.90;;;;;;5060275;28;19984;-70
2021/11/05 01:00:37;;;;;;;;;;;7.70;99.90;;;;;;5055740;28;19927;-70
2021/11/05 01:03:03;;;;;;;;;;;7.70;99.90;;;;;;5054722;28;20503;-70
2021/11/05 01:05:28;;;;;;;;;;;7.70;99.90;;;;;;5058076;28;19932;-69
2021/11/05 01:07:54;;;;;;;;;;;7.70;99.90;;;;;;5042964;28;19970;-69
2021/11/05 01:10:19;;;;;;;;;;;7.70;99.90;;;;;;5058639;28;19956;-69
2021/11/05 01:12:45;;;;;;;;;;;7.70;99.90;;;;;;5058750;28;19924;-69
2021/11/05 01:15:11;;;;;;;;;;;7.70;99.90;;;;;;5058980;28;19916;-69
2021/11/05 01:17:37;;;;;;;;;;;7.80;99.90;;;;;;5057549;28;19917;-69
2021/11/05 01:20:04;;;;;;;;;;;7.80;99.90;;;;;;5059504;28;20370;-69
2021/11/05 01:22:30;;;;;;;;;;;7.80;99.90;;;;;;5057736;28;19923;-69
2021/11/05 01:24:55;;;;;;;;;;;7.80;99.90;;;;;;5058965;28;20295;-69
2021/11/05 01:27:20;;;;;;;;;;;7.80;99.90;;;;;;5058665;28;19917;-69
2021/11/05 01:29:47;;;;;;;;;;;7.80;99.90;;;;;;5059503;28;19997;-69
2021/11/05 01:32:13;;;;;;;;;;;7.80;99.90;;;;;;5057525;28;19924;-69
2021/11/05 01:34:39;;;;;;;;;;;7.80;99.90;;;;;;5038581;28;19917;-69
2021/11/05 01:37:05;;;;;;;;;;;7.80;99.90;;;;;;5041221;28;20312;-69
2021/11/05 01:39:30;;;;;;;;;;;7.80;99.90;;;;;;5057926;28;19924;-69
2021/11/05 01:41:56;;;;;;;;;;;7.80;99.90;;;;;;5041547;28;19912;-69
2021/11/05 01:44:22;;;;;;;;;;;7.80;99.90;;;;;;5057853;28;19923;-70
2021/11/05 01:46:48;;;;;;;;;;;7.80;99.90;;;;;;5056432;28;19967;-69
2021/11/05 01:49:13;;;;;;;;;;;7.80;99.90;;;;;;5057273;28;19992;-69
2021/11/05 01:51:39;;;;;;;;;;;7.80;99.90;;;;;;5057442;28;20003;-69
2021/11/05 01:54:06;;;;;;;;;;;7.80;99.90;;;;;;5058508;28;20011;-69
2021/11/05 01:56:32;;;;;;;;;;;7.80;99.90;;;;;;5042158;28;19924;-69
2021/11/05 01:58:57;;;;;;;;;;;7.80;99.90;;;;;;5058895;28;19913;-69
2021/11/05 02:01:23;;;;;;;;;;;7.80;99.90;;;;;;5055499;28;19917;-69
2021/11/05 02:03:50;;;;;;;;;;;7.80;99.90;;;;;;5058238;28;19920;-69
2021/11/05 02:06:19;;;;;;;;;;;7.80;99.90;;;;;;5040246;28;19917;-69
2021/11/05 02:08:45;;;;;;;;;;;7.90;99.90;;;;;;5041322;28;19912;-70
2021/11/05 02:11:11;;;;;;;;;;;7.90;99.90;;;;;;5056728;28;19916;-69
2021/11/05 02:13:37;;;;;;;;;;;7.90;99.90;;;;;;5059127;28;20334;-69
2021/11/05 02:16:02;;;;;;;;;;;7.90;99.90;;;;;;5025328;28;19917;-69
2021/11/05 02:18:29;;;;;;;;;;;7.90;99.90;;;;;;5056230;28;19925;-69
2021/11/05 02:20:55;;;;;;;;;;;8.00;99.90;;;;;;5056112;28;19924;-69
2021/11/05 02:23:22;;;;;;;;;;;8.00;99.90;;;;;;5059021;28;19920;-69
2021/11/05 02:25:47;;;;;;;;;;;8.00;99.90;;;;;;5055792;28;20395;-70
2021/11/05 02:28:13;;;;;;;;;;;8.00;99.90;;;;;;5058433;28;19913;-69
2021/11/05 02:30:38;;;;;;;;;;;7.90;99.90;;;;;;5055925;28;19912;-70
2021/11/05 02:33:04;;;;;;;;;;;8.00;99.90;;;;;;5058975;28;19913;-69
2021/11/05 02:35:29;;;;;;;;;;;7.90;99.90;;;;;;5056422;28;19912;-70
2021/11/05 02:37:54;;;;;;;;;;;7.90;99.90;;;;;;5056530;28;19916;-69
2021/11/05 02:40:20;;;;;;;;;;;7.90;99.90;;;;;;5037828;28;19920;-70
2021/11/05 02:42:45;;;;;;;;;;;7.90;99.90;;;;;;5058797;28;20055;-69
2021/11/05 02:45:11;;;;;;;;;;;7.90;99.90;;;;;;5056516;28;20360;-69
2021/11/05 02:47:37;;;;;;;;;;;7.90;99.90;;;;;;5057565;28;20383;-69
2021/11/05 02:50:05;;;;;;;;;;;7.90;99.90;;;;;;5057999;28;19920;-69
2021/11/05 02:52:30;;;;;;;;;;;8.00;99.90;;;;;;5055577;28;20011;-69
2021/11/05 02:54:56;;;;;;;;;;;7.90;99.90;;;;;;5056297;28;19999;-69
2021/11/05 02:57:21;;;;;;;;;;;8.00;99.90;;;;;;5056308;28;20007;-68
2021/11/05 02:59:47;;;;;;;;;;;7.90;99.90;;;;;;5057317;28;19920;-70
2021/11/05 03:02:12;;;;;;;;;;;8.00;99.90;;;;;;5055684;28;19920;-70
2021/11/05 03:04:38;;;;;;;;;;;8.00;99.90;;;;;;5057320;28;20387;-69
2021/11/05 03:07:05;;;;;;;;;;;8.00;99.90;;;;;;5053969;28;19916;-69
2021/11/05 03:09:32;;;;;;;;;;;8.00;99.90;;;;;;5057658;28;19939;-69
2021/11/05 03:11:58;;;;;;;;;;;8.00;99.90;;;;;;5057288;28;19959;-70
2021/11/05 03:14:24;;;;;;;;;;;8.00;99.90;;;;;;5057384;28;20411;-69
2021/11/05 03:16:49;;;;;;;;;;;8.00;99.90;;;;;;5040413;28;19916;-69
2021/11/05 03:19:15;;;;;;;;;;;7.90;99.90;;;;;;5055215;28;19921;-70
2021/11/05 03:21:40;;;;;;;;;;;8.00;99.90;;;;;;5055115;28;19926;-69
2021/11/05 03:24:06;;;;;;;;;;;8.00;99.90;;;;;;5054832;28;19942;-69
2021/11/05 03:26:31;;;;;;;;;;;7.90;99.90;;;;;;5056012;28;19916;-69
2021/11/05 03:28:57;;;;;;;;;;;8.00;99.90;;;;;;5055996;28;19916;-70
2021/11/05 03:31:22;;;;;;;;;;;8.00;99.90;;;;;;5056634;28;19942;-69
2021/11/05 03:33:48;;;;;;;;;;;8.00;99.90;;;;;;5024207;28;20459;-69
2021/11/05 03:36:13;;;;;;;;;;;8.00;99.90;;;;;;5055126;28;20015;-69
2021/11/05 03:38:39;;;;;;;;;;;8.00;99.90;;;;;;5056299;28;20403;-70
2021/11/05 03:41:04;;;;;;;;;;;8.00;99.90;;;;;;5055734;28;19920;-69
2021/11/05 03:43:30;;;;;;;;;;;8.00;99.90;;;;;;5053956;28;19917;-69
2021/11/05 03:45:55;;;;;;;;;;;8.00;99.90;;;;;;5037751;28;19966;-69
2021/11/05 03:48:21;;;;;;;;;;;8.00;99.90;;;;;;5057765;28;19908;-69
2021/11/05 03:50:46;;;;;;;;;;;7.90;99.90;;;;;;5039773;28;19924;-69
2021/11/05 03:53:12;;;;;;;;;;;8.00;99.90;;;;;;5056976;28;19913;-69
2021/11/05 03:55:37;;;;;;;;;;;8.00;99.90;;;;;;5054520;28;19916;-69
2021/11/05 03:58:03;;;;;;;;;;;8.00;99.90;;;;;;5038688;28;19912;-69
2021/11/05 04:00:29;;;;;;;;;;;8.00;99.90;;;;;;5053604;28;20285;-69
2021/11/05 04:02:54;;;;;;;;;;;8.00;99.90;;;;;;5037354;28;19924;-69
2021/11/05 04:05:19;;;;;;;;;;;8.00;99.90;;;;;;5037823;28;20047;-69
2021/11/05 04:07:45;;;;;;;;;;;8.00;99.90;;;;;;5057225;28;19935;-70
2021/11/05 04:10:10;;;;;;;;;;;7.90;99.90;;;;;;5038623;28;19913;-70
2021/11/05 04:12:36;;;;;;;;;;;8.00;99.90;;;;;;5055173;28;20362;-70
2021/11/05 04:15:02;;;;;;;;;;;8.00;99.90;;;;;;5059958;28;20326;-70
2021/11/05 04:17:27;;;;;;;;;;;8.00;99.90;;;;;;5041171;28;19964;-70
2021/11/05 04:19:53;;;;;;;;;;;7.90;99.90;;;;;;5059900;28;19932;-70
2021/11/05 04:22:18;;;;;;;;;;;8.00;99.90;;;;;;5060377;28;19913;-70
2021/11/05 04:24:44;;;;;;;;;;;8.00;99.90;;;;;;5060759;28;20382;-70
2021/11/05 04:27:09;;;;;;;;;;;8.00;99.90;;;;;;5058837;28;19951;-70
2021/11/05 04:29:35;;;;;;;;;;;7.90;99.90;;;;;;5059367;28;19942;-70
2021/11/05 04:32:02;;;;;;;;;;;7.90;99.90;;;;;;5059196;28;20438;-70
2021/11/05 04:34:28;;;;;;;;;;;7.90;99.90;;;;;;5042116;28;19912;-70
2021/11/05 04:36:53;;;;;;;;;;;7.90;99.90;;;;;;5057780;28;19978;-70
2021/11/05 04:39:21;;;;;;;;;;;7.90;99.90;;;;;;5059483;28;20299;-70
2021/11/05 04:41:47;;;;;;;;;;;7.90;99.90;;;;;;5059872;28;19944;-70
2021/11/05 04:44:14;;;;;;;;;;;7.90;99.90;;;;;;5039917;28;19984;-70
2021/11/05 04:46:40;;;;;;;;;;;7.90;99.90;;;;;;5059100;28;20435;-70
2021/11/05 04:49:05;;;;;;;;;;;7.90;99.90;;;;;;5058524;28;19913;-70
2021/11/05 04:51:31;;;;;;;;;;;7.90;99.90;;;;;;5058907;28;19916;-70
2021/11/05 04:53:56;;;;;;;;;;;7.90;99.90;;;;;;5059357;28;20410;-70
2021/11/05 04:56:22;;;;;;;;;;;7.90;99.90;;;;;;5059547;28;19956;-70
2021/11/05 04:58:47;;;;;;;;;;;7.90;99.90;;;;;;5026474;28;20004;-70
2021/11/05 05:01:13;;;;;;;;;;;7.90;99.90;;;;;;5058022;28;20390;-70
2021/11/05 05:03:38;;;;;;;;;;;7.90;99.90;;;;;;5059907;28;20443;-70
2021/11/05 05:06:04;;;;;;;;;;;7.90;99.90;;;;;;5057061;28;20337;-70
2021/11/05 05:08:29;;;;;;;;;;;7.90;99.90;;;;;;5058986;22;20026;-70
2021/11/05 05:10:55;;;;;;;;;;;7.80;99.90;;;;;;5028569;28;20618;-70
2021/11/05 05:13:20;;;;;;;;;;;7.80;99.90;;;;;;5028972;28;19913;-70
2021/11/05 05:15:46;;;;;;;;;;;7.80;99.90;;;;;;5028886;28;20240;-70
2021/11/05 05:18:15;;;;;;;;;;;7.90;99.90;;;;;;5008781;28;19914;-70
2021/11/05 05:20:41;;;;;;;;;;;7.80;99.90;;;;;;5001072;28;19928;-70
2021/11/05 05:23:07;;;;;;;;;;;7.80;99.90;;;;;;5001215;28;19987;-70
2021/11/05 05:25:32;;;;;;;;;;;7.80;99.90;;;;;;5001326;28;20315;-70
2021/11/05 05:27:58;;;;;;;;;;;7.90;99.90;;;;;;5002192;28;20339;-70
2021/11/05 05:30:23;;;;;;;;;;;7.90;99.90;;;;;;5001083;28;19949;-70
2021/11/05 05:32:49;;;;;;;;;;;7.90;99.90;;;;;;5001497;28;19924;-70
2021/11/05 05:35:15;;;;;;;;;;;7.90;99.90;;;;;;5001151;28;20022;-70
2021/11/05 05:37:41;;;;;;;;;;;7.90;99.90;;;;;;5000717;28;19961;-69
2021/11/05 05:40:07;;;;;;;;;;;7.90;99.90;;;;;;4999391;28;20364;-70
2021/11/05 05:42:32;;;;;;;;;;;7.90;99.90;;;;;;5000702;28;19921;-70
2021/11/05 05:44:58;;;;;;;;;;;7.90;99.90;;;;;;5001165;28;20350;-71
2021/11/05 05:47:23;;;;;;;;;;;7.90;99.90;;;;;;5001317;28;20002;-71
2021/11/05 05:49:51;;;;;;;;;;;7.90;99.90;;;;;;5000867;28;20036;-71
2021/11/05 05:52:16;;;;;;;;;;;7.80;99.90;;;;;;5000409;28;20355;-70
2021/11/05 05:54:42;;;;;;;;;;;7.80;99.90;;;;;;4999866;28;20033;-71
2021/11/05 05:57:07;;;;;;;;;;;7.80;99.90;;;;;;5001265;28;19918;-70
2021/11/05 05:59:33;;;;;;;;;;;7.80;99.90;;;;;;5000821;28;19922;-70
2021/11/05 06:01:58;;;;;;;;;;;7.80;99.90;;;;;;5000503;28;19913;-70
2021/11/05 06:04:26;;;;;;;;;;;7.80;99.90;;;;;;5000557;28;19917;-69
2021/11/05 06:06:51;;;;;;;;;;;7.80;99.90;;;;;;4999929;28;20093;-69
2021/11/05 06:09:17;;;;;;;;;;;7.80;99.90;;;;;;5000079;28;20001;-69
2021/11/05 06:11:43;;;;;;;;;;;7.80;99.90;;;;;;5000076;28;19952;-70
2021/11/05 06:14:08;;;;;;;;;;;7.80;99.90;;;;;;5001485;28;20233;-70
2021/11/05 06:16:33;;;;;;;;;;;7.80;99.90;;;;;;5000203;28;19921;-70
2021/11/05 06:19:00;;;;;;;;;;;7.80;99.90;;;;;;5001195;28;19921;-70
2021/11/05 06:21:26;;;;;;;;;;;7.80;99.90;;;;;;4999542;28;19945;-70
2021/11/05 06:23:52;;;;;;;;;;;7.80;99.90;;;;;;5001409;28;20194;-69
2021/11/05 06:26:18;;;;;;;;;;;7.70;99.90;;;;;;4999892;28;19999;-70
2021/11/05 06:28:43;;;;;;;;;;;7.80;99.90;;;;;;5000523;28;19969;-70
2021/11/05 06:31:09;;;;;;;;;;;7.80;99.90;;;;;;4980102;28;19924;-70
2021/11/05 06:33:34;;;;;;;;;;;7.80;99.90;;;;;;4999362;28;20043;-70
2021/11/05 06:36:00;;;;;;;;;;;7.80;99.90;;;;;;4997835;28;20400;-70
2021/11/05 06:38:25;;;;;;;;;;;7.80;99.90;;;;;;4997901;28;20747;-70
2021/11/05 06:40:52;;;;;;;;;;;7.80;99.90;;;;;;4993642;28;21386;-72
2021/11/05 06:43:18;;;;;;;;;;;7.80;99.90;;;;;;4997132;28;19921;-71
2021/11/05 06:45:44;;;;;;;;;;;7.80;99.90;;;;;;4995568;28;19922;-71
2021/11/05 06:48:10;;;;;;;;;;;7.80;99.90;;;;;;4979475;28;20344;-71
2021/11/05 06:50:37;;;;;;;;;;;7.80;99.90;;;;;;4997318;28;20008;-71
2021/11/05 06:53:03;;;;;;;;;;;7.80;99.90;;;;;;5000043;28;19961;-71
2021/11/05 06:55:28;;;;;;;;;;;7.80;99.90;;;;;;4998310;28;19960;-71
2021/11/05 06:57:54;;;;;;;;;;;7.80;99.90;;;;;;4999308;28;20457;-71
2021/11/05 07:00:19;;;;;;;;;;;7.80;99.90;;;;;;4998663;28;20023;-71
2021/11/05 07:02:45;;;;;;;;;;;7.90;99.90;;;;;;4997963;28;20295;-71
2021/11/05 07:05:11;;;;;;;;;;;7.80;99.90;;;;;;4998013;28;20004;-72
2021/11/05 07:07:37;;;;;;;;;;;7.80;99.90;;;;;;4988620;28;20261;-71
2021/11/05 07:10:03;;;;;;;;;;;7.90;99.90;;;;;;4999624;28;19921;-71
2021/11/05 07:12:29;;;;;;;;;;;7.90;99.90;;;;;;4998021;28;19913;-71
2021/11/05 07:14:54;;;;;;;;;;;7.90;99.90;;;;;;4999269;28;19918;-72
2021/11/05 07:17:19;;;;;;;;;;;7.90;99.90;;;;;;4997015;28;20008;-72
2021/11/05 07:19:45;;;;;;;;;;;7.90;99.90;;;;;;4998528;28;19921;-72
2021/11/05 07:22:10;;;;;;;;;;;7.90;99.90;;;;;;4999138;28;19941;-72
2021/11/05 07:24:37;;;;;;;;;;;7.90;99.90;;;;;;4998689;28;20005;-72
2021/11/05 07:27:02;;;;;;;;;;;7.90;99.90;;;;;;4999186;28;19913;-72
2021/11/05 07:29:28;;;;;;;;;;;8.00;99.90;;;;;;4998042;28;19929;-72
2021/11/05 07:31:56;;;;;;;;;;;8.00;99.90;;;;;;4980137;28;19922;-72
2021/11/05 07:34:21;;;;;;;;;;;8.00;99.90;;;;;;4998283;28;19922;-71
2021/11/05 07:36:47;;;;;;;;;;;8.00;99.90;;;;;;4997933;28;19972;-72
2021/11/05 07:39:12;;;;;;;;;;;8.00;99.90;;;;;;4999043;28;20361;-72
2021/11/05 07:41:38;;;;;;;;;;;8.00;99.90;;;;;;4998747;28;19917;-72
2021/11/05 07:44:03;;;;;;;;;;;8.00;99.90;;;;;;4998899;28;19914;-72
2021/11/05 07:46:29;;;;;;;;;;;8.00;99.90;;;;;;4998509;28;19961;-72
2021/11/05 07:48:55;;;;;;;;;;;8.10;99.90;;;;;;4998577;28;19920;-72
2021/11/05 07:51:20;;;;;;;;;;;8.10;99.90;;;;;;4997624;28;19940;-73
2021/11/05 07:53:45;;;;;;;;;;;8.20;99.90;;;;;;4998035;28;19932;-72
2021/11/05 07:56:11;;;;;;;;;;;8.20;99.90;;;;;;4999128;28;19968;-72
2021/11/05 07:58:37;;;;;;;;;;;8.20;99.90;;;;;;4998523;28;20009;-72
2021/11/05 08:01:03;;;;;;;;;;;8.20;99.90;;;;;;4997536;28;19922;-72
2021/11/05 08:03:28;;;;;;;;;;;8.20;99.90;;;;;;4998921;28;19917;-73
2021/11/05 08:05:54;;;;;;;;;;;8.30;99.90;;;;;;4999208;28;20009;-73
2021/11/05 08:08:20;;;;;;;;;;;8.20;99.90;;;;;;4999089;28;20377;-73
2021/11/05 08:10:45;;;;;;;;;;;8.30;99.90;;;;;;4998852;28;19918;-72
2021/11/05 08:13:11;;;;;;;;;;;8.30;99.90;;;;;;4997077;28;19939;-73
2021/11/05 08:15:37;;;;;;;;;;;8.30;99.90;;;;;;4998379;28;19917;-71
2021/11/05 08:18:02;;;;;;;;;;;8.30;99.90;;;;;;4999647;28;20455;-70
2021/11/05 08:20:28;;;;;;;;;;;8.30;99.90;;;;;;4997907;28;19922;-71
2021/11/05 08:22:53;;;;;;;;;;;8.30;99.90;;;;;;4998714;28;19943;-71
2021/11/05 08:25:19;;;;;;;;;;;8.40;99.90;;;;;;4998543;28;20261;-71
2021/11/05 08:27:45;;;;;;;;;;;8.40;99.90;;;;;;4979435;28;19997;-70
2021/11/05 08:30:13;;;;;;;;;;;8.40;99.90;;;;;;4997856;28;19958;-70
2021/11/05 08:32:39;;;;;;;;;;;8.40;99.90;;;;;;4998520;28;19914;-72
2021/11/05 08:35:05;;;;;;;;;;;8.40;99.90;;;;;;4997452;28;19924;-72
2021/11/05 08:37:30;;;;;;;;;;;8.40;99.90;;;;;;4998605;28;20003;-72
2021/11/05 08:39:56;;;;;;;;;;;8.40;99.90;;;;;;4980754;28;20494;-71
2021/11/05 08:42:22;;;;;;;;;;;8.40;99.90;;;;;;4997914;28;19913;-71
2021/11/05 08:44:47;;;;;;;;;;;8.40;99.90;;;;;;4996811;28;19918;-72
2021/11/05 08:47:13;;;;;;;;;;;8.40;99.90;;;;;;4998646;28;19924;-71
2021/11/05 08:49:38;;;;;;;;;;;8.40;99.90;;;;;;4997535;28;19917;-72
2021/11/05 08:52:04;;;;;;;;;;;8.40;99.90;;;;;;4998772;28;19956;-72
2021/11/05 08:54:29;;;;;;;;;;;8.40;99.90;;;;;;4998361;28;20302;-73
2021/11/05 08:56:55;;;;;;;;;;;8.40;99.90;;;;;;4997275;28;19933;-73
2021/11/05 08:59:21;;;;;;;;;;;8.40;99.90;;;;;;4997300;28;19913;-73
2021/11/05 09:01:47;;;;;;;;;;;8.40;99.90;;;;;;5000191;28;20454;-72
2021/11/05 09:04:12;;;;;;;;;;;8.40;99.90;;;;;;5001165;28;19918;-72
2021/11/05 09:06:39;;;;;;;;;;;8.40;99.90;;;;;;4999092;28;20342;-72
2021/11/05 09:09:04;;;;;;;;;;;8.50;99.90;;;;;;5001142;28;19922;-71
2021/11/05 09:11:31;;;;;;;;;;;8.50;99.90;;;;;;5001570;28;19981;-72
2021/11/05 09:13:57;;;;;;;;;;;8.50;99.90;;;;;;5000744;28;20016;-72
2021/11/05 09:16:24;;;;;;;;;;;8.60;99.90;;;;;;5001526;28;20013;-72
2021/11/05 09:18:50;;;;;;;;;;;8.60;99.90;;;;;;5000224;28;19924;-72
2021/11/05 09:21:16;;;;;;;;;;;8.60;99.90;;;;;;5000682;28;20021;-70
2021/11/05 09:23:41;;;;;;;;;;;8.60;99.90;;;;;;5001258;28;20100;-70
2021/11/05 09:26:08;;;;;;;;;;;8.70;99.90;;;;;;5002251;28;20016;-72
2021/11/05 09:28:33;;;;;;;;;;;8.70;99.90;;;;;;5001166;28;20343;-71
2021/11/05 09:30:59;;;;;;;;;;;8.70;99.90;;;;;;5000533;28;19921;-71
2021/11/05 09:33:25;;;;;;;;;;;8.70;99.90;;;;;;5001404;28;19913;-71
2021/11/05 09:35:50;;;;;;;;;;;8.70;99.90;;;;;;5000293;28;19921;-70
2021/11/05 09:38:16;;;;;;;;;;;8.70;99.90;;;;;;5001412;28;20209;-70
2021/11/05 09:40:41;;;;;;;;;;;8.80;99.90;;;;;;5000078;28;19987;-70
2021/11/05 09:43:07;;;;;;;;;;;8.80;99.90;;;;;;5000704;28;19925;-70
2021/11/05 09:45:33;;;;;;;;;;;9.30;99.90;;;;;;4982521;28;19924;-71
2021/11/05 09:47:59;;;;;;;;;;;9.80;99.90;;;;;;5001029;28;20422;-72
2021/11/05 09:50:24;;;;;;;;;;;9.90;99.90;;;;;;5001211;28;19922;-70
2021/11/05 09:52:50;;;;;;;;;;;9.80;99.90;;;;;;5000921;28;20004;-71
2021/11/05 09:55:16;;;;;;;;;;;9.70;99.90;;;;;;4999861;28;19983;-71
2021/11/05 09:57:42;;;;;;;;;;;9.60;99.90;;;;;;5000733;28;19918;-71
2021/11/05 10:00:09;;;;;;;;;;;9.40;99.90;;;;;;5001018;28;19918;-71
2021/11/05 10:02:35;;;;;;;;;;;9.40;99.90;;;;;;4999009;28;19914;-71
2021/11/05 10:05:01;;;;;;;;;;;9.30;99.90;;;;;;4999799;28;19970;-71
2021/11/05 10:07:27;;;;;;;;;;;9.30;99.90;;;;;;4999073;28;19922;-72
2021/11/05 10:09:54;;;;;;;;;;;9.30;99.90;;;;;;4999573;28;19940;-71
2021/11/05 10:12:23;;;;;;;;;;;9.20;99.90;;;;;;5000582;28;20401;-71
2021/11/05 10:14:56;;;;;;;;;;;9.20;99.90;;;;;;5000281;28;20320;-71
2021/11/05 10:17:22;;;;;;;;;;;9.30;99.90;;;;;;5001210;28;19913;-71
2021/11/05 10:19:50;;;;;;;;;;;9.30;99.90;;;;;;5000517;28;19945;-70
2021/11/05 10:22:34;;;;;;;;;;;9.30;99.90;;;;;;5000262;28;19925;-71
2021/11/05 10:25:18;;;;;;;;;;;9.30;99.90;;;;;;4982325;28;19921;-71
2021/11/05 10:27:44;;;;;;;;;;;9.30;99.90;;;;;;4998374;28;20012;-71
2021/11/05 10:30:09;;;;;;;;;;;9.30;99.90;;;;;;4982159;28;20041;-71
2021/11/05 10:32:39;;;;;;;;;;;9.40;99.90;;;;;;5000602;28;19918;-71
2021/11/05 10:35:13;;;;;;;;;;;9.40;99.90;;;;;;4999596;28;19914;-71
2021/11/05 10:37:41;;;;;;;;;;;9.50;99.90;;;;;;5000755;28;19918;-71
2021/11/05 10:40:08;;;;;;;;;;;9.50;99.90;;;;;;4998473;28;19940;-72
2021/11/05 10:42:36;;;;;;;;;;;9.50;99.90;;;;;;4998581;28;19920;-72
2021/11/05 10:45:14;;;;;;;;;;;9.50;99.90;;;;;;4999613;28;19918;-72
2021/11/05 10:47:52;;;;;;;;;;;9.70;99.90;;;;;;4999626;28;19925;-72
2021/11/05 10:50:19;;;;;;;;;;;9.70;99.90;;;;;;4998004;28;19936;-71
2021/11/05 10:52:56;;;;;;;;;;;9.80;99.90;;;;;;4999822;28;19918;-71
2021/11/05 10:55:22;;;;;;;;;;;9.80;99.90;;;;;;4999217;28;20384;-71
2021/11/05 10:57:49;;;;;;;;;;;9.80;99.90;;;;;;4998972;28;19972;-71
2021/11/05 11:00:29;;;;;;;;;;;9.90;99.90;;;;;;4999114;28;19968;-71
2021/11/05 11:02:55;;;;;;;;;;;9.90;99.90;;;;;;4982072;28;19913;-71
2021/11/05 11:05:33;;;;;;;;;;;9.90;99.90;;;;;;4999564;28;19918;-71
2021/11/05 11:08:00;;;;;;;;;;;9.90;99.90;;;;;;5052199;22;19928;-70
2021/11/05 11:10:33;;;;;;;;;;;9.90;99.90;;;;;;5048033;28;20354;-70
2021/11/05 11:12:58;;;;;;;;;;;9.90;99.90;;;;;;5065402;28;19982;-70
2021/11/05 11:15:33;;;;;;;;;;;9.90;99.90;;;;;;5065258;28;19924;-70
2021/11/05 11:17:59;;;;;;;;;;;9.90;99.90;;;;;;5050592;28;20390;-70
2021/11/05 11:20:29;;;;;;;;;;;9.90;99.90;;;;;;5043775;28;20010;-70
2021/11/05 11:22:54;;;;;;;;;;;9.90;99.90;;;;;;5041398;28;19912;-71
2021/11/05 11:25:20;;;;;;;;;;;9.90;99.90;;;;;;5044166;28;20054;-71
2021/11/05 11:27:45;;;;;;;;;;;9.90;99.90;;;;;;5043887;28;20287;-71
2021/11/05 11:30:11;;;;;;;;;;;9.90;99.90;;;;;;5053830;28;19968;-70
2021/11/05 11:32:36;;;;;;;;;;;9.90;99.90;;;;;;5046057;28;20002;-71
2021/11/05 11:35:02;;;;;;;;;;;9.90;99.90;;;;;;5046289;28;19919;-71
2021/11/05 11:42:38;;;;;;;;;;;10.00;99.90;;;;;;5201739;23;19933;-75
2021/11/05 11:45:08;;;;;;;;;;;10.10;99.90;;;;;;4968102;28;20080;-75
2021/11/05 11:47:42;;;;;;;;;;;10.10;99.90;;;;;;4969986;28;19918;-74
2021/11/05 11:50:27;;;;;;;;;;;10.10;99.90;;;;;;4963230;28;19914;-75
2021/11/05 11:52:57;;;;;;;;;;;10.20;99.90;;;;;;4963396;28;19914;-74
2021/11/05 11:55:22;;;;;;;;;;;10.20;99.90;;;;;;4986544;28;20356;-75
2021/11/05 11:57:48;;;;;;;;;;;10.30;99.90;;;;;;4964922;28;19918;-75
2021/11/05 12:00:22;;;;;;;;;;;10.30;99.90;;;;;;4984790;28;19938;-74
2021/11/05 12:02:48;;;;;;;;;;;10.30;99.90;;;;;;4987002;28;19913;-74
2021/11/05 12:05:20;;;;;;;;;;;10.30;99.90;;;;;;4986352;28;19918;-73
2021/11/05 12:08:04;;;;;;;;;;;10.30;99.90;;;;;;4969461;28;19925;-75
2021/11/05 12:10:30;;;;;;;;;;;10.30;99.90;;;;;;4962553;28;19918;-74
2021/11/05 12:12:55;;;;;;;;;;;10.30;99.90;;;;;;4985620;28;19925;-74
2021/11/05 12:15:21;;;;;;;;;;;10.30;99.90;;;;;;4985926;28;19918;-74
2021/11/05 12:17:46;;;;;;;;;;;10.30;99.90;;;;;;4985222;28;20189;-71
2021/11/05 12:20:32;;;;;;;;;;;10.30;99.90;;;;;;4986277;28;19998;-72
2021/11/05 12:23:10;;;;;;;;;;;10.30;99.90;;;;;;4986245;28;19918;-69
2021/11/05 12:25:45;;;;;;;;;;;10.30;99.90;;;;;;4986788;28;19964;-66
2021/11/05 12:28:15;;;;;;;;;;;10.30;99.90;;;;;;4986714;28;19925;-65
2021/11/05 12:30:40;;;;;;;;;;;10.70;99.90;;;;;;4984825;28;19991;-65
2021/11/05 12:33:24;;;;;;;;;;;11.10;99.90;;;;;;4983677;28;20377;-66
2021/11/05 12:35:51;;;;;;;;;;;11.30;99.90;;;;;;4989900;28;19960;-72
2021/11/05 12:38:17;;;;;;;;;;;11.40;99.90;;;;;;4988189;28;19918;-70
2021/11/05 12:40:47;;;;;;;;;;;11.30;99.90;;;;;;4990137;28;20272;-70
2021/11/05 12:43:22;;;;;;;;;;;11.20;99.90;;;;;;4990294;28;20381;-71
2021/11/05 12:45:48;;;;;;;;;;;11.00;99.90;;;;;;4990727;28;20000;-71
2021/11/05 12:48:14;;;;;;;;;;;10.90;99.90;;;;;;4988231;28;19921;-71
2021/11/05 12:50:43;;;;;;;;;;;10.90;99.90;;;;;;4989283;28;19924;-71
2021/11/05 12:53:09;;;;;;;;;;;10.90;99.90;;;;;;4981963;28;19921;-71
2021/11/05 12:55:39;;;;;;;;;;;10.80;99.90;;;;;;4990533;28;19956;-71
2021/11/05 12:58:06;;;;;;;;;;;10.80;99.90;;;;;;4990383;28;19968;-71
2021/11/05 13:00:33;;;;;;;;;;;10.70;99.90;;;;;;4989685;28;19936;-71
2021/11/05 13:02:59;;;;;;;;;;;10.70;99.90;;;;;;4989162;28;20441;-71
2021/11/05 13:05:26;;;;;;;;;;;10.80;99.90;;;;;;4988750;28;20302;-71
2021/11/05 13:07:52;;;;;;;;;;;10.80;99.90;;;;;;4990061;28;19914;-71
2021/11/05 13:10:25;;;;;;;;;;;10.80;99.90;;;;;;4989500;28;19940;-70
2021/11/05 13:12:52;;;;;;;;;;;10.70;99.90;;;;;;4990073;28;19928;-70
2021/11/05 13:15:18;;;;;;;;;;;10.70;99.90;;;;;;4989039;28;20007;-70
2021/11/05 13:17:43;;;;;;;;;;;10.60;99.90;;;;;;4989883;28;19957;-65
2021/11/05 13:20:28;;;;;;;;;;;10.70;99.90;;;;;;4989291;28;19928;-66
2021/11/05 13:22:54;;;;;;;;;;;11.00;99.90;;;;;;4988187;28;19920;-65
2021/11/05 13:25:21;;;;;;;;;;;11.30;99.90;;;;;;4989370;28;19917;-70
2021/11/05 13:27:48;;;;;;;;;;;11.30;99.90;;;;;;4971726;28;20346;-72
2021/11/05 13:30:14;;;;;;;;;;;11.10;99.90;;;;;;4988407;28;20364;-70
2021/11/05 13:32:40;;;;;;;;;;;10.90;99.90;;;;;;4989256;28;19918;-71
2021/11/05 13:35:05;;;;;;;;;;;10.80;99.90;;;;;;4988587;28;19918;-71
2021/11/05 13:37:32;;;;;;;;;;;10.70;99.90;;;;;;4989159;28;19921;-71
2021/11/05 13:39:58;;;;;;;;;;;10.60;99.90;;;;;;4989585;28;19929;-71
2021/11/05 13:42:24;;;;;;;;;;;10.60;99.90;;;;;;4972319;28;20272;-71
2021/11/05 13:45:05;;;;;;;;;;;10.60;99.90;;;;;;4989471;28;20000;-71
2021/11/05 13:47:30;;;;;;;;;;;10.60;99.90;;;;;;4988565;28;19913;-71
2021/11/05 13:50:22;;;;;;;;;;;10.50;99.90;;;;;;4989997;28;19987;-71
2021/11/05 13:52:58;;;;;;;;;;;10.50;99.90;;;;;;4960251;28;19918;-72
2021/11/05 13:55:32;;;;;;;;;;;10.50;99.90;;;;;;4972576;28;19914;-72
2021/11/05 13:57:58;;;;;;;;;;;10.50;99.90;;;;;;4972330;28;19914;-71
2021/11/05 14:00:23;;;;;;;;;;;10.50;99.90;;;;;;4990283;28;19925;-71
2021/11/05 14:02:53;;;;;;;;;;;10.50;99.90;;;;;;4971762;28;19921;-71
2021/11/05 14:05:18;;;;;;;;;;;10.50;99.90;;;;;;4972164;28;19921;-71
2021/11/05 14:08:02;;;;;;;;;;;10.50;99.90;;;;;;4990171;28;19996;-71
2021/11/05 14:10:28;;;;;;;;;;;10.50;99.90;;;;;;4989118;28;19914;-71
2021/11/05 14:12:57;;;;;;;;;;;10.50;99.90;;;;;;4989656;28;20471;-71
2021/11/05 14:15:27;;;;;;;;;;;10.50;99.90;;;;;;4989427;28;19922;-71
2021/11/05 14:17:53;;;;;;;;;;;10.40;99.90;;;;;;4988325;28;20433;-71
2021/11/05 14:20:30;;;;;;;;;;;10.40;99.90;;;;;;4988888;28;20031;-71
2021/11/05 14:22:56;;;;;;;;;;;10.40;99.90;;;;;;4987023;28;19917;-70
2021/11/05 14:25:22;;;;;;;;;;;10.40;99.90;;;;;;4987399;28;19924;-70
2021/11/05 14:27:49;;;;;;;;;;;10.30;99.90;;;;;;4988696;28;19918;-70
2021/11/05 14:30:19;;;;;;;;;;;10.30;99.90;;;;;;4988036;28;20387;-70
2021/11/05 14:32:48;;;;;;;;;;;10.30;99.90;;;;;;4980413;28;20041;-72